sensor_id;sensor_type;location;lat;lon;timestamp;P1;durP1;ratioP1;P2;durP2;ratioP2
23282;SDS011;11810;51.178;3.878;2022-11-10T00:00:01;22.45;;;5.47;;
23282;SDS011;11810;51.178;3.878;2022-11-10T00:02:28;27.33;;;5.82;;
23282;SDS011;11810;51.178;3.878;2022-11-10T00:04:54;22.70;;;5.50;;
23282;SDS011;11810;51.178;3.878;2022-11-10T00:07:23;33.40;;;6.00;;
23282;SDS011;11810;51.178;3.878;2022-11-10T00:09:50;23.15;;;5.60;;
23282;SDS011;11810;51.178;3.878;2022-11-10T00:12:17;21.40;;;6.00;;
23282;SDS011;11810;51.178;3.878;2022-11-10T00:14:44;22.10;;;5.43;;
23282;SDS011;11810;51.178;3.878;2022-11-10T00:17:28;28.90;;;5.57;;
23282;SDS011;11810;51.178;3.878;2022-11-10T00:19:54;29.15;;;5.93;;
23282;SDS011;11810;51.178;3.878;2022-11-10T00:22:20;18.10;;;5.50;;
23282;SDS011;11810;51.178;3.878;2022-11-10T00:24:46;19.70;;;5.53;;
23282;SDS011;11810;51.178;3.878;2022-11-10T00:27:12;30.60;;;6.65;;
23282;SDS011;11810;51.178;3.878;2022-11-10T00:29:39;27.65;;;5.53;;
23282;SDS011;11810;51.178;3.878;2022-11-10T00:32:06;24.02;;;4.97;;
23282;SDS011;11810;51.178;3.878;2022-11-10T00:34:32;25.38;;;4.70;;
23282;SDS011;11810;51.178;3.878;2022-11-10T00:36:58;26.23;;;4.82;;
23282;SDS011;11810;51.178;3.878;2022-11-10T00:39:24;27.10;;;4.88;;
23282;SDS011;11810;51.178;3.878;2022-11-10T00:41:50;25.48;;;4.63;;
23282;SDS011;11810;51.178;3.878;2022-11-10T00:44:15;16.98;;;4.38;;
23282;SDS011;11810;51.178;3.878;2022-11-10T00:46:41;17.45;;;4.13;;
23282;SDS011;11810;51.178;3.878;2022-11-10T00:49:07;15.70;;;4.10;;
23282;SDS011;11810;51.178;3.878;2022-11-10T00:51:33;15.23;;;4.18;;
23282;SDS011;11810;51.178;3.878;2022-11-10T00:53:58;21.13;;;4.55;;
23282;SDS011;11810;51.178;3.878;2022-11-10T00:56:24;23.23;;;4.47;;
23282;SDS011;11810;51.178;3.878;2022-11-10T00:58:50;23.88;;;4.47;;
23282;SDS011;11810;51.178;3.878;2022-11-10T01:01:17;33.35;;;5.20;;
23282;SDS011;11810;51.178;3.878;2022-11-10T01:03:44;26.83;;;4.55;;
23282;SDS011;11810;51.178;3.878;2022-11-10T01:06:11;21.35;;;4.75;;
23282;SDS011;11810;51.178;3.878;2022-11-10T01:08:39;34.42;;;5.50;;
23282;SDS011;11810;51.178;3.878;2022-11-10T01:11:06;20.73;;;4.90;;
23282;SDS011;11810;51.178;3.878;2022-11-10T01:13:43;24.80;;;5.43;;
23282;SDS011;11810;51.178;3.878;2022-11-10T01:16:14;27.98;;;5.05;;
23282;SDS011;11810;51.178;3.878;2022-11-10T01:18:43;24.17;;;5.10;;
23282;SDS011;11810;51.178;3.878;2022-11-10T01:21:12;28.90;;;5.78;;
23282;SDS011;11810;51.178;3.878;2022-11-10T01:23:38;27.85;;;5.57;;
23282;SDS011;11810;51.178;3.878;2022-11-10T01:26:05;29.65;;;6.28;;
23282;SDS011;11810;51.178;3.878;2022-11-10T01:28:32;24.33;;;5.40;;
23282;SDS011;11810;51.178;3.878;2022-11-10T01:30:59;26.30;;;6.20;;
23282;SDS011;11810;51.178;3.878;2022-11-10T01:33:27;32.33;;;5.38;;
23282;SDS011;11810;51.178;3.878;2022-11-10T01:35:53;25.23;;;4.97;;
23282;SDS011;11810;51.178;3.878;2022-11-10T01:38:19;33.20;;;6.15;;
23282;SDS011;11810;51.178;3.878;2022-11-10T01:40:46;23.75;;;5.32;;
23282;SDS011;11810;51.178;3.878;2022-11-10T01:43:12;30.23;;;6.35;;
23282;SDS011;11810;51.178;3.878;2022-11-10T01:51:07;26.85;;;6.25;;
23282;SDS011;11810;51.178;3.878;2022-11-10T01:53:39;27.15;;;5.90;;
23282;SDS011;11810;51.178;3.878;2022-11-10T01:56:08;28.30;;;6.18;;
23282;SDS011;11810;51.178;3.878;2022-11-10T01:58:41;30.77;;;6.15;;
23282;SDS011;11810;51.178;3.878;2022-11-10T02:01:11;30.38;;;5.32;;
23282;SDS011;11810;51.178;3.878;2022-11-10T02:10:34;35.60;;;6.97;;
23282;SDS011;11810;51.178;3.878;2022-11-10T02:13:01;36.28;;;6.10;;
23282;SDS011;11810;51.178;3.878;2022-11-10T02:15:27;34.03;;;6.30;;
23282;SDS011;11810;51.178;3.878;2022-11-10T02:17:53;29.40;;;5.65;;
23282;SDS011;11810;51.178;3.878;2022-11-10T02:20:19;25.67;;;5.28;;
23282;SDS011;11810;51.178;3.878;2022-11-10T02:22:46;27.58;;;5.60;;
23282;SDS011;11810;51.178;3.878;2022-11-10T02:25:16;35.33;;;6.60;;
23282;SDS011;11810;51.178;3.878;2022-11-10T02:27:45;26.05;;;6.07;;
23282;SDS011;11810;51.178;3.878;2022-11-10T02:30:11;25.65;;;6.03;;
23282;SDS011;11810;51.178;3.878;2022-11-10T02:32:37;32.25;;;5.80;;
23282;SDS011;11810;51.178;3.878;2022-11-10T02:35:03;30.65;;;6.03;;
23282;SDS011;11810;51.178;3.878;2022-11-10T02:37:30;32.35;;;6.20;;
23282;SDS011;11810;51.178;3.878;2022-11-10T02:39:56;31.52;;;5.88;;
23282;SDS011;11810;51.178;3.878;2022-11-10T02:42:22;31.13;;;5.53;;
23282;SDS011;11810;51.178;3.878;2022-11-10T02:44:48;35.22;;;5.22;;
23282;SDS011;11810;51.178;3.878;2022-11-10T02:47:13;30.83;;;6.25;;
23282;SDS011;11810;51.178;3.878;2022-11-10T02:49:39;34.20;;;5.47;;
23282;SDS011;11810;51.178;3.878;2022-11-10T02:52:05;23.05;;;4.93;;
23282;SDS011;11810;51.178;3.878;2022-11-10T02:54:31;28.85;;;5.65;;
23282;SDS011;11810;51.178;3.878;2022-11-10T02:56:56;27.85;;;5.32;;
23282;SDS011;11810;51.178;3.878;2022-11-10T02:59:22;27.33;;;5.28;;
23282;SDS011;11810;51.178;3.878;2022-11-10T03:01:48;34.08;;;5.85;;
23282;SDS011;11810;51.178;3.878;2022-11-10T03:04:14;27.63;;;4.93;;
23282;SDS011;11810;51.178;3.878;2022-11-10T03:06:40;27.98;;;5.35;;
23282;SDS011;11810;51.178;3.878;2022-11-10T03:09:05;23.73;;;4.10;;
23282;SDS011;11810;51.178;3.878;2022-11-10T03:11:31;31.08;;;4.88;;
23282;SDS011;11810;51.178;3.878;2022-11-10T03:13:57;24.38;;;4.57;;
23282;SDS011;11810;51.178;3.878;2022-11-10T03:16:23;28.83;;;5.20;;
23282;SDS011;11810;51.178;3.878;2022-11-10T03:18:48;28.30;;;4.57;;
23282;SDS011;11810;51.178;3.878;2022-11-10T03:21:14;23.30;;;4.78;;
23282;SDS011;11810;51.178;3.878;2022-11-10T03:23:40;20.95;;;3.97;;
23282;SDS011;11810;51.178;3.878;2022-11-10T03:26:06;27.55;;;3.88;;
23282;SDS011;11810;51.178;3.878;2022-11-10T03:28:32;27.52;;;4.43;;
23282;SDS011;11810;51.178;3.878;2022-11-10T03:30:58;35.65;;;5.13;;
23282;SDS011;11810;51.178;3.878;2022-11-10T03:33:24;21.58;;;4.10;;
23282;SDS011;11810;51.178;3.878;2022-11-10T03:35:50;33.60;;;4.38;;
23282;SDS011;11810;51.178;3.878;2022-11-10T03:38:16;22.15;;;4.13;;
23282;SDS011;11810;51.178;3.878;2022-11-10T03:40:41;23.45;;;4.15;;
23282;SDS011;11810;51.178;3.878;2022-11-10T03:43:07;27.35;;;4.38;;
23282;SDS011;11810;51.178;3.878;2022-11-10T03:45:35;30.98;;;4.38;;
23282;SDS011;11810;51.178;3.878;2022-11-10T03:48:01;25.48;;;4.13;;
23282;SDS011;11810;51.178;3.878;2022-11-10T03:50:27;15.43;;;3.90;;
23282;SDS011;11810;51.178;3.878;2022-11-10T03:52:52;25.83;;;3.90;;
23282;SDS011;11810;51.178;3.878;2022-11-10T03:55:18;22.40;;;3.90;;
23282;SDS011;11810;51.178;3.878;2022-11-10T03:57:45;28.38;;;4.32;;
23282;SDS011;11810;51.178;3.878;2022-11-10T04:00:11;30.98;;;5.05;;
23282;SDS011;11810;51.178;3.878;2022-11-10T04:02:38;29.90;;;4.50;;
23282;SDS011;11810;51.178;3.878;2022-11-10T04:05:04;27.52;;;4.07;;
23282;SDS011;11810;51.178;3.878;2022-11-10T04:07:56;22.92;;;4.78;;
23282;SDS011;11810;51.178;3.878;2022-11-10T04:10:44;38.90;;;4.70;;
23282;SDS011;11810;51.178;3.878;2022-11-10T04:13:10;34.10;;;5.85;;
23282;SDS011;11810;51.178;3.878;2022-11-10T04:15:54;26.67;;;4.32;;
23282;SDS011;11810;51.178;3.878;2022-11-10T04:18:20;34.35;;;4.25;;
23282;SDS011;11810;51.178;3.878;2022-11-10T04:20:48;22.77;;;3.80;;
23282;SDS011;11810;51.178;3.878;2022-11-10T04:23:19;29.25;;;4.07;;
23282;SDS011;11810;51.178;3.878;2022-11-10T04:26:00;38.25;;;4.35;;
23282;SDS011;11810;51.178;3.878;2022-11-10T04:28:50;29.38;;;3.78;;
23282;SDS011;11810;51.178;3.878;2022-11-10T04:31:17;33.05;;;4.20;;
23282;SDS011;11810;51.178;3.878;2022-11-10T04:33:44;25.17;;;4.22;;
23282;SDS011;11810;51.178;3.878;2022-11-10T04:36:12;34.53;;;4.72;;
23282;SDS011;11810;51.178;3.878;2022-11-10T04:38:39;27.80;;;4.45;;
23282;SDS011;11810;51.178;3.878;2022-11-10T04:41:05;31.92;;;4.50;;
23282;SDS011;11810;51.178;3.878;2022-11-10T04:43:32;34.15;;;4.60;;
23282;SDS011;11810;51.178;3.878;2022-11-10T04:45:58;39.17;;;4.88;;
23282;SDS011;11810;51.178;3.878;2022-11-10T04:48:25;36.17;;;5.70;;
23282;SDS011;11810;51.178;3.878;2022-11-10T04:50:52;20.50;;;4.22;;
23282;SDS011;11810;51.178;3.878;2022-11-10T04:53:18;22.55;;;4.10;;
23282;SDS011;11810;51.178;3.878;2022-11-10T04:55:44;29.48;;;4.80;;
23282;SDS011;11810;51.178;3.878;2022-11-10T04:58:11;28.60;;;5.43;;
23282;SDS011;11810;51.178;3.878;2022-11-10T05:00:38;27.10;;;4.18;;
23282;SDS011;11810;51.178;3.878;2022-11-10T05:03:06;19.85;;;4.07;;
23282;SDS011;11810;51.178;3.878;2022-11-10T05:05:33;28.40;;;4.35;;
23282;SDS011;11810;51.178;3.878;2022-11-10T05:07:59;33.30;;;5.22;;
23282;SDS011;11810;51.178;3.878;2022-11-10T05:10:26;27.48;;;4.30;;
23282;SDS011;11810;51.178;3.878;2022-11-10T05:12:53;26.13;;;5.18;;
23282;SDS011;11810;51.178;3.878;2022-11-10T05:15:20;25.08;;;4.22;;
23282;SDS011;11810;51.178;3.878;2022-11-10T05:17:49;19.67;;;4.40;;
23282;SDS011;11810;51.178;3.878;2022-11-10T05:20:16;32.85;;;4.03;;
23282;SDS011;11810;51.178;3.878;2022-11-10T05:22:43;30.33;;;4.82;;
23282;SDS011;11810;51.178;3.878;2022-11-10T05:25:11;32.15;;;4.82;;
23282;SDS011;11810;51.178;3.878;2022-11-10T05:27:37;35.53;;;5.25;;
23282;SDS011;11810;51.178;3.878;2022-11-10T05:30:02;22.27;;;4.30;;
23282;SDS011;11810;51.178;3.878;2022-11-10T05:32:28;35.30;;;4.88;;
23282;SDS011;11810;51.178;3.878;2022-11-10T05:34:54;27.58;;;4.40;;
23282;SDS011;11810;51.178;3.878;2022-11-10T05:37:20;29.65;;;4.50;;
23282;SDS011;11810;51.178;3.878;2022-11-10T05:39:46;28.63;;;4.38;;
23282;SDS011;11810;51.178;3.878;2022-11-10T05:42:12;28.50;;;4.05;;
23282;SDS011;11810;51.178;3.878;2022-11-10T05:44:38;34.10;;;5.18;;
23282;SDS011;11810;51.178;3.878;2022-11-10T05:47:03;28.92;;;4.45;;
23282;SDS011;11810;51.178;3.878;2022-11-10T05:49:29;27.58;;;4.45;;
23282;SDS011;11810;51.178;3.878;2022-11-10T05:51:55;26.35;;;4.15;;
23282;SDS011;11810;51.178;3.878;2022-11-10T05:54:21;31.70;;;4.47;;
23282;SDS011;11810;51.178;3.878;2022-11-10T05:56:46;25.58;;;4.30;;
23282;SDS011;11810;51.178;3.878;2022-11-10T05:59:12;22.23;;;4.32;;
23282;SDS011;11810;51.178;3.878;2022-11-10T06:01:38;33.97;;;4.97;;
23282;SDS011;11810;51.178;3.878;2022-11-10T06:04:04;24.13;;;4.35;;
23282;SDS011;11810;51.178;3.878;2022-11-10T06:06:29;35.08;;;3.97;;
23282;SDS011;11810;51.178;3.878;2022-11-10T06:08:55;30.15;;;4.38;;
23282;SDS011;11810;51.178;3.878;2022-11-10T06:11:23;29.33;;;4.55;;
23282;SDS011;11810;51.178;3.878;2022-11-10T06:13:48;28.98;;;4.25;;
23282;SDS011;11810;51.178;3.878;2022-11-10T06:16:14;25.27;;;4.63;;
23282;SDS011;11810;51.178;3.878;2022-11-10T06:18:40;25.27;;;4.18;;
23282;SDS011;11810;51.178;3.878;2022-11-10T06:21:05;18.50;;;4.40;;
23282;SDS011;11810;51.178;3.878;2022-11-10T06:24:01;33.22;;;5.22;;
23282;SDS011;11810;51.178;3.878;2022-11-10T06:26:26;32.28;;;4.70;;
23282;SDS011;11810;51.178;3.878;2022-11-10T06:28:52;32.58;;;4.50;;
23282;SDS011;11810;51.178;3.878;2022-11-10T06:31:18;23.52;;;4.55;;
23282;SDS011;11810;51.178;3.878;2022-11-10T06:33:44;34.85;;;6.07;;
23282;SDS011;11810;51.178;3.878;2022-11-10T06:36:09;21.95;;;4.20;;
23282;SDS011;11810;51.178;3.878;2022-11-10T06:38:35;29.88;;;4.55;;
23282;SDS011;11810;51.178;3.878;2022-11-10T06:41:01;25.67;;;4.68;;
23282;SDS011;11810;51.178;3.878;2022-11-10T06:43:26;27.88;;;4.35;;
23282;SDS011;11810;51.178;3.878;2022-11-10T06:45:52;24.55;;;4.50;;
23282;SDS011;11810;51.178;3.878;2022-11-10T06:48:18;36.13;;;5.40;;
23282;SDS011;11810;51.178;3.878;2022-11-10T06:50:43;29.90;;;4.50;;
23282;SDS011;11810;51.178;3.878;2022-11-10T06:53:09;26.00;;;4.63;;
23282;SDS011;11810;51.178;3.878;2022-11-10T06:55:37;23.33;;;4.93;;
23282;SDS011;11810;51.178;3.878;2022-11-10T06:58:04;31.33;;;4.45;;
23282;SDS011;11810;51.178;3.878;2022-11-10T07:00:29;38.63;;;5.82;;
23282;SDS011;11810;51.178;3.878;2022-11-10T07:02:59;32.05;;;5.43;;
23282;SDS011;11810;51.178;3.878;2022-11-10T07:05:26;29.20;;;5.25;;
23282;SDS011;11810;51.178;3.878;2022-11-10T07:07:52;36.65;;;5.35;;
23282;SDS011;11810;51.178;3.878;2022-11-10T07:10:18;35.67;;;5.32;;
23282;SDS011;11810;51.178;3.878;2022-11-10T07:12:44;26.35;;;4.75;;
23282;SDS011;11810;51.178;3.878;2022-11-10T07:15:10;37.88;;;6.18;;
23282;SDS011;11810;51.178;3.878;2022-11-10T07:17:39;37.08;;;5.30;;
23282;SDS011;11810;51.178;3.878;2022-11-10T07:20:06;32.35;;;5.13;;
23282;SDS011;11810;51.178;3.878;2022-11-10T07:22:32;31.50;;;4.95;;
23282;SDS011;11810;51.178;3.878;2022-11-10T07:24:58;24.02;;;5.22;;
23282;SDS011;11810;51.178;3.878;2022-11-10T07:27:24;36.33;;;4.90;;
23282;SDS011;11810;51.178;3.878;2022-11-10T07:29:49;26.40;;;4.65;;
23282;SDS011;11810;51.178;3.878;2022-11-10T07:32:15;26.48;;;4.75;;
23282;SDS011;11810;51.178;3.878;2022-11-10T07:34:41;37.88;;;5.85;;
23282;SDS011;11810;51.178;3.878;2022-11-10T07:37:07;28.55;;;5.15;;
23282;SDS011;11810;51.178;3.878;2022-11-10T07:39:33;31.85;;;4.72;;
23282;SDS011;11810;51.178;3.878;2022-11-10T07:41:59;20.60;;;4.53;;
23282;SDS011;11810;51.178;3.878;2022-11-10T07:44:25;28.80;;;6.60;;
23282;SDS011;11810;51.178;3.878;2022-11-10T07:46:51;21.08;;;5.40;;
23282;SDS011;11810;51.178;3.878;2022-11-10T07:49:17;33.20;;;6.53;;
23282;SDS011;11810;51.178;3.878;2022-11-10T07:51:43;31.25;;;4.55;;
23282;SDS011;11810;51.178;3.878;2022-11-10T07:54:09;38.53;;;5.68;;
23282;SDS011;11810;51.178;3.878;2022-11-10T07:56:35;24.13;;;5.22;;
23282;SDS011;11810;51.178;3.878;2022-11-10T07:59:01;27.75;;;4.60;;
23282;SDS011;11810;51.178;3.878;2022-11-10T08:01:27;17.50;;;4.57;;
23282;SDS011;11810;51.178;3.878;2022-11-10T08:03:53;28.75;;;5.07;;
23282;SDS011;11810;51.178;3.878;2022-11-10T08:06:19;30.98;;;5.70;;
23282;SDS011;11810;51.178;3.878;2022-11-10T08:08:45;22.02;;;4.55;;
23282;SDS011;11810;51.178;3.878;2022-11-10T08:11:11;22.20;;;4.82;;
23282;SDS011;11810;51.178;3.878;2022-11-10T08:13:37;18.77;;;4.35;;
23282;SDS011;11810;51.178;3.878;2022-11-10T08:16:04;25.77;;;4.57;;
23282;SDS011;11810;51.178;3.878;2022-11-10T08:18:30;23.35;;;4.60;;
23282;SDS011;11810;51.178;3.878;2022-11-10T08:20:58;21.73;;;4.80;;
23282;SDS011;11810;51.178;3.878;2022-11-10T08:23:25;18.05;;;4.38;;
23282;SDS011;11810;51.178;3.878;2022-11-10T08:25:52;19.00;;;4.00;;
23282;SDS011;11810;51.178;3.878;2022-11-10T08:28:22;19.23;;;4.25;;
23282;SDS011;11810;51.178;3.878;2022-11-10T08:30:48;21.17;;;4.47;;
23282;SDS011;11810;51.178;3.878;2022-11-10T08:33:16;20.65;;;5.57;;
23282;SDS011;11810;51.178;3.878;2022-11-10T08:35:44;18.85;;;4.15;;
23282;SDS011;11810;51.178;3.878;2022-11-10T08:38:14;18.13;;;3.63;;
23282;SDS011;11810;51.178;3.878;2022-11-10T08:40:43;15.50;;;4.13;;
23282;SDS011;11810;51.178;3.878;2022-11-10T08:43:09;18.40;;;3.92;;
23282;SDS011;11810;51.178;3.878;2022-11-10T08:45:36;16.80;;;3.90;;
23282;SDS011;11810;51.178;3.878;2022-11-10T08:48:05;23.27;;;4.55;;
23282;SDS011;11810;51.178;3.878;2022-11-10T08:50:34;13.48;;;3.55;;
23282;SDS011;11810;51.178;3.878;2022-11-10T08:53:00;18.17;;;4.45;;
23282;SDS011;11810;51.178;3.878;2022-11-10T08:55:31;16.17;;;3.47;;
23282;SDS011;11810;51.178;3.878;2022-11-10T08:57:58;18.10;;;3.67;;
23282;SDS011;11810;51.178;3.878;2022-11-10T09:00:25;16.92;;;3.25;;
23282;SDS011;11810;51.178;3.878;2022-11-10T09:02:53;18.70;;;3.95;;
23282;SDS011;11810;51.178;3.878;2022-11-10T09:05:20;30.25;;;4.75;;
23282;SDS011;11810;51.178;3.878;2022-11-10T09:07:47;13.60;;;3.50;;
23282;SDS011;11810;51.178;3.878;2022-11-10T09:10:15;17.27;;;3.60;;
23282;SDS011;11810;51.178;3.878;2022-11-10T09:12:41;15.88;;;3.13;;
23282;SDS011;11810;51.178;3.878;2022-11-10T09:15:08;14.70;;;3.30;;
23282;SDS011;11810;51.178;3.878;2022-11-10T09:17:34;13.15;;;3.17;;
23282;SDS011;11810;51.178;3.878;2022-11-10T09:20:01;16.05;;;3.70;;
23282;SDS011;11810;51.178;3.878;2022-11-10T09:22:27;13.45;;;3.38;;
23282;SDS011;11810;51.178;3.878;2022-11-10T09:24:53;13.65;;;3.30;;
23282;SDS011;11810;51.178;3.878;2022-11-10T09:27:19;19.55;;;4.00;;
23282;SDS011;11810;51.178;3.878;2022-11-10T09:29:45;20.13;;;3.47;;
23282;SDS011;11810;51.178;3.878;2022-11-10T09:32:11;11.95;;;2.80;;
23282;SDS011;11810;51.178;3.878;2022-11-10T09:34:37;20.60;;;3.85;;
23282;SDS011;11810;51.178;3.878;2022-11-10T09:37:03;16.75;;;3.65;;
23282;SDS011;11810;51.178;3.878;2022-11-10T09:39:29;17.70;;;3.75;;
23282;SDS011;11810;51.178;3.878;2022-11-10T09:41:55;14.43;;;2.65;;
23282;SDS011;11810;51.178;3.878;2022-11-10T09:44:22;16.38;;;3.90;;
23282;SDS011;11810;51.178;3.878;2022-11-10T09:47:04;15.93;;;3.03;;
23282;SDS011;11810;51.178;3.878;2022-11-10T09:52:05;19.23;;;3.22;;
23282;SDS011;11810;51.178;3.878;2022-11-10T09:54:36;11.93;;;3.50;;
23282;SDS011;11810;51.178;3.878;2022-11-10T09:57:09;9.65;;;2.55;;
23282;SDS011;11810;51.178;3.878;2022-11-10T09:59:38;17.98;;;3.30;;
23282;SDS011;11810;51.178;3.878;2022-11-10T10:10:24;15.27;;;3.20;;
23282;SDS011;11810;51.178;3.878;2022-11-10T10:13:03;10.73;;;2.25;;
23282;SDS011;11810;51.178;3.878;2022-11-10T10:18:40;16.90;;;2.92;;
23282;SDS011;11810;51.178;3.878;2022-11-10T10:24:16;16.25;;;2.88;;
23282;SDS011;11810;51.178;3.878;2022-11-10T10:26:49;13.27;;;3.15;;
23282;SDS011;11810;51.178;3.878;2022-11-10T10:29:25;17.27;;;3.17;;
23282;SDS011;11810;51.178;3.878;2022-11-10T10:31:55;14.90;;;2.75;;
23282;SDS011;11810;51.178;3.878;2022-11-10T10:34:25;12.98;;;2.92;;
23282;SDS011;11810;51.178;3.878;2022-11-10T10:36:53;12.75;;;2.53;;
23282;SDS011;11810;51.178;3.878;2022-11-10T10:42:11;14.70;;;3.42;;
23282;SDS011;11810;51.178;3.878;2022-11-10T10:47:37;12.75;;;2.72;;
23282;SDS011;11810;51.178;3.878;2022-11-10T10:50:20;15.52;;;3.25;;
23282;SDS011;11810;51.178;3.878;2022-11-10T10:53:16;14.88;;;3.47;;
23282;SDS011;11810;51.178;3.878;2022-11-10T10:55:55;11.50;;;2.80;;
23282;SDS011;11810;51.178;3.878;2022-11-10T10:58:30;14.73;;;3.30;;
23282;SDS011;11810;51.178;3.878;2022-11-10T11:01:04;17.27;;;3.05;;
23282;SDS011;11810;51.178;3.878;2022-11-10T11:03:50;14.02;;;3.00;;
23282;SDS011;11810;51.178;3.878;2022-11-10T11:06:18;10.48;;;2.63;;
23282;SDS011;11810;51.178;3.878;2022-11-10T11:11:28;17.48;;;3.50;;
23282;SDS011;11810;51.178;3.878;2022-11-10T11:16:52;17.80;;;3.22;;
23282;SDS011;11810;51.178;3.878;2022-11-10T11:19:24;11.95;;;3.10;;
23282;SDS011;11810;51.178;3.878;2022-11-10T11:25:17;13.50;;;2.75;;
23282;SDS011;11810;51.178;3.878;2022-11-10T11:27:54;20.48;;;3.15;;
23282;SDS011;11810;51.178;3.878;2022-11-10T11:30:23;15.48;;;3.30;;
23282;SDS011;11810;51.178;3.878;2022-11-10T11:33:23;13.50;;;3.20;;
23282;SDS011;11810;51.178;3.878;2022-11-10T11:52:33;9.98;;;2.58;;
23282;SDS011;11810;51.178;3.878;2022-11-10T11:55:31;14.93;;;2.53;;
23282;SDS011;11810;51.178;3.878;2022-11-10T11:58:04;14.57;;;2.90;;
23282;SDS011;11810;51.178;3.878;2022-11-10T12:09:24;12.63;;;3.13;;
23282;SDS011;11810;51.178;3.878;2022-11-10T12:12:06;16.70;;;2.88;;
23282;SDS011;11810;51.178;3.878;2022-11-10T12:18:12;12.07;;;3.03;;
23282;SDS011;11810;51.178;3.878;2022-11-10T12:26:12;14.15;;;3.00;;
23282;SDS011;11810;51.178;3.878;2022-11-10T12:28:54;13.43;;;2.83;;
23282;SDS011;11810;51.178;3.878;2022-11-10T12:31:27;11.60;;;2.40;;
23282;SDS011;11810;51.178;3.878;2022-11-10T12:34:00;14.18;;;3.28;;
23282;SDS011;11810;51.178;3.878;2022-11-10T12:36:35;11.55;;;2.72;;
23282;SDS011;11810;51.178;3.878;2022-11-10T12:39:04;10.43;;;2.75;;
23282;SDS011;11810;51.178;3.878;2022-11-10T12:41:44;8.55;;;2.80;;
23282;SDS011;11810;51.178;3.878;2022-11-10T12:47:04;10.27;;;2.88;;
23282;SDS011;11810;51.178;3.878;2022-11-10T12:49:32;14.43;;;3.00;;
23282;SDS011;11810;51.178;3.878;2022-11-10T12:54:52;8.55;;;2.47;;
23282;SDS011;11810;51.178;3.878;2022-11-10T12:57:19;7.13;;;1.88;;
23282;SDS011;11810;51.178;3.878;2022-11-10T12:59:59;13.43;;;2.67;;
23282;SDS011;11810;51.178;3.878;2022-11-10T13:07:50;16.45;;;3.10;;
23282;SDS011;11810;51.178;3.878;2022-11-10T13:10:50;10.00;;;2.22;;
23282;SDS011;11810;51.178;3.878;2022-11-10T13:13:39;10.68;;;2.58;;
23282;SDS011;11810;51.178;3.878;2022-11-10T13:16:08;9.27;;;2.42;;
23282;SDS011;11810;51.178;3.878;2022-11-10T13:21:01;10.38;;;1.90;;
23282;SDS011;11810;51.178;3.878;2022-11-10T13:23:27;10.77;;;1.92;;
23282;SDS011;11810;51.178;3.878;2022-11-10T13:34:25;8.63;;;2.25;;
23282;SDS011;11810;51.178;3.878;2022-11-10T13:36:52;8.50;;;2.40;;
23282;SDS011;11810;51.178;3.878;2022-11-10T13:41:45;7.30;;;2.40;;
23282;SDS011;11810;51.178;3.878;2022-11-10T13:47:48;15.15;;;2.10;;
23282;SDS011;11810;51.178;3.878;2022-11-10T13:50:06;8.65;;;2.20;;
23282;SDS011;11810;51.178;3.878;2022-11-10T14:00:33;11.10;;;2.87;;
23282;SDS011;11810;51.178;3.878;2022-11-10T14:03:04;8.38;;;2.13;;
23282;SDS011;11810;51.178;3.878;2022-11-10T14:08:21;9.05;;;1.80;;
23282;SDS011;11810;51.178;3.878;2022-11-10T14:13:22;7.30;;;1.70;;
23282;SDS011;11810;51.178;3.878;2022-11-10T14:16:16;6.30;;;1.60;;
23282;SDS011;11810;51.178;3.878;2022-11-10T14:18:53;8.00;;;2.05;;
23282;SDS011;11810;51.178;3.878;2022-11-10T14:21:31;11.35;;;1.92;;
23282;SDS011;11810;51.178;3.878;2022-11-10T14:26:47;10.82;;;2.00;;
23282;SDS011;11810;51.178;3.878;2022-11-10T14:31:52;9.30;;;1.83;;
23282;SDS011;11810;51.178;3.878;2022-11-10T14:34:19;8.07;;;1.60;;
23282;SDS011;11810;51.178;3.878;2022-11-10T14:36:51;5.72;;;1.85;;
23282;SDS011;11810;51.178;3.878;2022-11-10T14:39:20;7.78;;;1.60;;
23282;SDS011;11810;51.178;3.878;2022-11-10T14:41:53;8.73;;;1.77;;
23282;SDS011;11810;51.178;3.878;2022-11-10T14:44:24;11.00;;;2.10;;
23282;SDS011;11810;51.178;3.878;2022-11-10T14:46:51;12.02;;;2.30;;
23282;SDS011;11810;51.178;3.878;2022-11-10T14:49:22;10.70;;;2.13;;
23282;SDS011;11810;51.178;3.878;2022-11-10T14:51:49;7.82;;;1.95;;
23282;SDS011;11810;51.178;3.878;2022-11-10T14:54:21;8.38;;;1.75;;
23282;SDS011;11810;51.178;3.878;2022-11-10T14:56:50;8.65;;;1.60;;
23282;SDS011;11810;51.178;3.878;2022-11-10T14:59:16;10.35;;;2.05;;
23282;SDS011;11810;51.178;3.878;2022-11-10T15:01:52;9.10;;;2.05;;
23282;SDS011;11810;51.178;3.878;2022-11-10T15:04:24;9.95;;;2.35;;
23282;SDS011;11810;51.178;3.878;2022-11-10T15:06:54;9.05;;;2.03;;
23282;SDS011;11810;51.178;3.878;2022-11-10T15:09:25;7.28;;;1.75;;
23282;SDS011;11810;51.178;3.878;2022-11-10T15:12:39;5.35;;;1.73;;
23282;SDS011;11810;51.178;3.878;2022-11-10T15:14:55;7.82;;;2.15;;
23282;SDS011;11810;51.178;3.878;2022-11-10T15:17:43;4.75;;;1.60;;
23282;SDS011;11810;51.178;3.878;2022-11-10T15:20:27;10.60;;;1.92;;
23282;SDS011;11810;51.178;3.878;2022-11-10T15:23:17;9.88;;;1.95;;
23282;SDS011;11810;51.178;3.878;2022-11-10T15:25:47;14.27;;;2.50;;
23282;SDS011;11810;51.178;3.878;2022-11-10T15:33:22;10.00;;;1.70;;
23282;SDS011;11810;51.178;3.878;2022-11-10T15:35:51;5.68;;;1.85;;
23282;SDS011;11810;51.178;3.878;2022-11-10T15:40:46;12.73;;;2.10;;
23282;SDS011;11810;51.178;3.878;2022-11-10T15:45:41;14.93;;;2.30;;
23282;SDS011;11810;51.178;3.878;2022-11-10T15:48:12;12.90;;;2.35;;
23282;SDS011;11810;51.178;3.878;2022-11-10T15:50:39;9.30;;;1.98;;
23282;SDS011;11810;51.178;3.878;2022-11-10T15:53:10;7.03;;;2.10;;
23282;SDS011;11810;51.178;3.878;2022-11-10T15:55:42;7.53;;;1.83;;
23282;SDS011;11810;51.178;3.878;2022-11-10T15:58:12;10.73;;;2.40;;
23282;SDS011;11810;51.178;3.878;2022-11-10T16:00:41;11.30;;;2.35;;
23282;SDS011;11810;51.178;3.878;2022-11-10T16:03:10;9.88;;;2.20;;
23282;SDS011;11810;51.178;3.878;2022-11-10T16:05:38;9.48;;;1.92;;
23282;SDS011;11810;51.178;3.878;2022-11-10T16:08:11;7.60;;;2.47;;
23282;SDS011;11810;51.178;3.878;2022-11-10T16:10:42;7.87;;;1.90;;
23282;SDS011;11810;51.178;3.878;2022-11-10T16:15:40;9.32;;;2.00;;
23282;SDS011;11810;51.178;3.878;2022-11-10T16:18:14;11.52;;;2.90;;
23282;SDS011;11810;51.178;3.878;2022-11-10T16:20:41;12.55;;;2.92;;
23282;SDS011;11810;51.178;3.878;2022-11-10T16:23:07;17.23;;;3.10;;
23282;SDS011;11810;51.178;3.878;2022-11-10T16:25:33;9.57;;;2.55;;
23282;SDS011;11810;51.178;3.878;2022-11-10T16:28:00;8.18;;;3.03;;
23282;SDS011;11810;51.178;3.878;2022-11-10T16:30:28;7.68;;;2.17;;
23282;SDS011;11810;51.178;3.878;2022-11-10T16:32:54;11.15;;;2.42;;
23282;SDS011;11810;51.178;3.878;2022-11-10T16:35:20;13.43;;;2.60;;
23282;SDS011;11810;51.178;3.878;2022-11-10T16:37:46;11.10;;;2.83;;
23282;SDS011;11810;51.178;3.878;2022-11-10T16:40:19;14.48;;;2.88;;
23282;SDS011;11810;51.178;3.878;2022-11-10T16:42:47;11.80;;;2.78;;
23282;SDS011;11810;51.178;3.878;2022-11-10T16:45:13;10.23;;;2.55;;
23282;SDS011;11810;51.178;3.878;2022-11-10T16:47:39;15.18;;;2.97;;
23282;SDS011;11810;51.178;3.878;2022-11-10T16:50:06;12.80;;;4.68;;
23282;SDS011;11810;51.178;3.878;2022-11-10T16:52:51;17.50;;;5.55;;
23282;SDS011;11810;51.178;3.878;2022-11-10T16:55:17;12.95;;;3.35;;
23282;SDS011;11810;51.178;3.878;2022-11-10T16:57:43;12.40;;;3.75;;
23282;SDS011;11810;51.178;3.878;2022-11-10T17:00:08;14.95;;;4.15;;
23282;SDS011;11810;51.178;3.878;2022-11-10T17:02:34;11.52;;;3.33;;